createdAt,value
2019-05-25T06:03:54.800Z,35.78
2019-05-25T06:06:28.741Z,37.38
2019-05-25T06:08:59.931Z,33.88
2019-05-25T06:11:31.244Z,36.25
2019-05-25T06:14:01.869Z,32.90
2019-05-25T06:16:33.558Z,36.53
2019-05-25T06:19:07.358Z,30.60
2019-05-25T06:21:36.923Z,34.20
2019-05-25T06:24:06.919Z,35.25
2019-05-25T06:26:37.774Z,41.50
2019-05-25T06:29:09.042Z,33.23
2019-05-25T06:31:38.669Z,34.50
2019-05-25T08:02:34.883Z,41.40
2019-05-25T08:05:07.038Z,40.67
2019-05-25T08:07:36.944Z,45.12
2019-05-25T08:10:12.828Z,40.93
2019-05-25T08:12:42.457Z,36.85
2019-05-25T08:15:12.268Z,37.00
2019-05-25T08:17:41.868Z,35.95
2019-05-25T08:20:11.999Z,33.83
2019-05-25T08:22:41.698Z,31.57
2019-05-25T08:25:11.889Z,36.95
2019-05-25T08:27:41.510Z,31.55
2019-05-25T08:30:11.368Z,30.00
2019-05-25T08:32:40.943Z,34.35
2019-05-25T08:35:11.597Z,31.35
2019-05-25T08:37:41.167Z,28.60
2019-05-25T08:40:11.523Z,29.12
2019-05-25T08:42:41.091Z,32.78
2019-05-25T08:45:11.219Z,33.33
2019-05-25T08:47:40.827Z,27.52
2019-05-25T08:50:10.961Z,25.52
2019-05-25T08:52:40.649Z,22.02
2019-05-25T08:55:10.295Z,25.35
2019-05-25T08:57:39.880Z,24.12
2019-05-25T09:00:10.000Z,27.00
2019-05-25T09:02:39.527Z,24.23
2019-05-25T09:05:10.092Z,22.80
2019-05-25T09:07:39.871Z,22.10
2019-05-25T09:10:10.856Z,23.07
2019-05-25T09:12:40.393Z,21.65
2019-05-25T09:15:10.047Z,19.15
2019-05-25T09:17:39.809Z,23.22
2019-05-25T09:20:10.785Z,19.23
2019-05-25T09:22:40.353Z,21.82
2019-05-25T09:25:10.292Z,20.65
2019-05-25T09:27:44.701Z,16.60
2019-05-25T09:30:15.747Z,21.65
2019-05-25T09:36:36.085Z,18.48
2019-05-25T09:39:08.124Z,17.55
2019-05-25T09:41:38.846Z,20.17
2019-05-25T09:44:08.724Z,21.55
2019-05-25T09:46:38.666Z,22.03
2019-05-25T09:49:08.523Z,19.07
2019-05-25T09:51:41.803Z,17.30
2019-05-25T09:54:12.128Z,18.07
2019-05-25T09:56:44.038Z,15.90
2019-05-25T09:59:20.116Z,15.08
2019-05-25T10:01:45.470Z,15.10
2019-05-25T10:04:15.039Z,14.05
2019-05-25T10:06:44.528Z,15.63
2019-05-25T10:09:14.469Z,13.75
2019-05-25T10:11:44.089Z,10.87
2019-05-25T10:14:13.856Z,13.78
2019-05-25T10:16:43.357Z,13.32
2019-05-25T10:19:12.944Z,12.43
2019-05-25T10:21:42.448Z,12.93
2019-05-25T10:24:11.986Z,11.68
2019-05-25T10:26:41.540Z,11.30
2019-05-25T10:29:11.722Z,11.73
2019-05-25T10:31:41.228Z,14.53
2019-05-25T10:34:11.848Z,11.48
2019-05-25T10:36:41.412Z,9.70
2019-05-25T10:39:10.975Z,9.45
2019-05-25T10:41:40.516Z,10.05
2019-05-25T10:44:10.028Z,11.43
2019-05-25T10:46:39.548Z,11.22
2019-05-25T10:49:11.667Z,10.38
2019-05-25T10:51:41.313Z,8.65
2019-05-25T10:54:10.832Z,8.13
2019-05-25T10:56:40.329Z,8.35
2019-05-25T10:59:09.840Z,5.80
2019-05-25T11:01:39.369Z,5.90
2019-05-25T11:04:08.948Z,7.70
2019-05-25T11:06:39.616Z,8.20
2019-05-25T11:09:10.376Z,8.60
2019-05-25T11:14:08.960Z,8.03
2019-05-25T11:16:38.469Z,6.67
2019-05-25T11:19:07.948Z,7.55
2019-05-25T11:21:37.476Z,7.37
2019-05-25T11:24:07.373Z,7.95
2019-05-25T11:26:38.931Z,6.70
2019-05-25T11:29:08.432Z,9.30
2019-05-25T11:31:38.042Z,8.25
2019-05-25T11:34:07.848Z,6.00
2019-05-25T11:36:37.367Z,4.37
2019-05-25T11:39:07.291Z,7.22
2019-05-25T11:41:36.792Z,5.83
2019-05-25T11:44:06.296Z,4.72
2019-05-25T11:46:35.829Z,6.97
2019-05-25T11:49:21.659Z,5.03
2019-05-25T11:51:37.776Z,5.22
2019-05-25T11:54:07.332Z,5.15
2019-05-25T11:56:37.112Z,6.08
2019-05-25T11:59:06.607Z,6.67
2019-05-25T12:01:37.343Z,3.35
2019-05-25T12:06:35.632Z,2.92
2019-05-25T12:09:07.394Z,2.45
2019-05-25T12:11:36.956Z,5.40
2019-05-25T12:14:07.789Z,2.90
2019-05-25T12:16:37.296Z,4.08
2019-05-25T12:19:06.841Z,2.40
2019-05-25T12:21:36.351Z,2.58
2019-05-25T12:24:06.089Z,2.72
2019-05-25T12:26:35.707Z,2.33
2019-05-25T12:29:06.423Z,2.70
2019-05-25T12:31:35.940Z,3.25
2019-05-25T12:34:05.514Z,4.47
2019-05-25T12:36:35.012Z,2.80
2019-05-25T12:39:06.840Z,2.08
2019-05-25T12:41:36.421Z,1.32
2019-05-25T12:44:06.100Z,1.42
2019-05-25T12:46:35.851Z,1.25
2019-05-25T12:49:05.410Z,0.85
2019-05-25T12:51:34.970Z,2.15
2019-05-25T12:54:05.667Z,2.10
2019-05-25T12:59:04.274Z,1.05
2019-05-25T13:01:33.760Z,1.00
2019-05-25T13:04:04.340Z,2.92
2019-05-25T13:06:33.835Z,1.55
2019-05-25T13:09:05.210Z,1.65
2019-05-25T13:11:35.043Z,2.02
2019-05-25T13:14:14.185Z,1.17
2019-05-25T13:16:36.324Z,1.95
2019-05-25T13:19:06.001Z,1.80
2019-05-25T13:21:35.508Z,2.27
2019-05-25T13:24:06.261Z,1.62
2019-05-25T13:29:05.665Z,2.77
2019-05-25T13:34:05.928Z,3.33
2019-05-25T13:36:36.627Z,1.92
2019-05-25T13:41:35.647Z,1.82
2019-05-25T13:44:05.176Z,1.20
2019-05-25T13:46:34.668Z,1.57
2019-05-25T13:49:04.247Z,1.37
2019-05-25T13:51:33.736Z,3.67
2019-05-25T13:54:03.251Z,2.67
2019-05-25T13:56:33.913Z,1.57
2019-05-25T14:01:32.112Z,1.12
2019-05-25T14:04:01.636Z,2.37
2019-05-25T14:06:31.124Z,1.62
2019-05-25T14:09:00.656Z,1.42
2019-05-25T14:11:30.176Z,1.50
2019-05-25T14:14:00.883Z,3.45
2019-05-25T14:18:59.899Z,1.35
2019-05-25T14:21:29.392Z,1.77
2019-05-25T14:23:58.905Z,3.40
2019-05-25T14:26:30.031Z,2.67
2019-05-25T14:28:59.563Z,1.35
2019-05-25T14:31:44.362Z,2.98
2019-05-25T14:34:02.374Z,1.40
2019-05-25T14:36:32.173Z,1.45
2019-05-25T14:39:01.692Z,2.67
2019-05-25T14:41:31.184Z,4.97
2019-05-25T14:44:00.700Z,2.45
2019-05-25T14:46:30.202Z,1.82
2019-05-25T14:48:59.715Z,1.62
2019-05-25T14:51:30.444Z,1.87
2019-05-25T14:56:29.869Z,1.70
2019-05-25T14:58:59.363Z,2.27
2019-05-25T15:01:28.984Z,1.70
2019-05-25T15:03:58.666Z,3.70
2019-05-25T15:06:28.404Z,1.60
2019-05-25T15:08:57.909Z,2.27
2019-05-25T15:11:29.563Z,3.90
2019-05-25T15:13:59.732Z,2.37
2019-05-25T15:16:29.312Z,3.15
2019-05-25T15:19:00.772Z,3.08
2019-05-25T15:21:30.336Z,4.50
2019-05-25T15:24:00.176Z,2.15
2019-05-25T15:26:30.112Z,1.90
2019-05-25T15:28:59.603Z,2.77
2019-05-25T15:31:30.371Z,2.08
2019-05-25T15:33:59.911Z,3.22
2019-05-25T15:36:29.412Z,4.55
2019-05-25T15:38:59.048Z,2.45
2019-05-25T15:41:28.622Z,3.08
2019-05-25T15:43:59.117Z,2.27
2019-05-25T15:46:28.650Z,2.20
2019-05-25T15:48:58.223Z,3.87
2019-05-25T15:51:28.336Z,4.00
2019-05-25T15:53:58.027Z,1.80
2019-05-25T15:56:27.529Z,5.12
2019-05-25T15:58:57.800Z,2.33
2019-05-25T16:01:27.358Z,1.70
2019-05-25T16:03:56.868Z,1.90
2019-05-25T16:06:26.383Z,3.35
2019-05-25T16:08:56.030Z,2.87
2019-05-25T16:11:25.881Z,1.60
2019-05-25T16:13:55.842Z,2.87
2019-05-25T16:16:30.154Z,3.40
2019-05-25T16:18:56.804Z,1.72
2019-05-25T16:21:28.313Z,1.60
2019-05-25T16:23:57.951Z,1.70
2019-05-25T16:26:27.755Z,2.90
2019-05-25T16:28:57.400Z,2.58
2019-05-25T16:31:27.100Z,1.80
2019-05-25T16:33:57.618Z,2.00
2019-05-25T16:36:27.168Z,1.87
2019-05-25T16:38:57.688Z,1.87
2019-05-25T16:41:32.937Z,2.77
2019-05-25T16:44:02.433Z,2.25
2019-05-25T16:46:31.992Z,2.55
2019-05-25T16:49:01.591Z,2.17
2019-05-25T16:51:31.392Z,2.25
2019-05-25T16:54:01.049Z,3.37
2019-05-25T16:56:30.586Z,1.98
2019-05-25T16:59:00.327Z,3.17
2019-05-25T17:01:46.900Z,2.15
2019-05-25T17:04:01.015Z,3.10
2019-05-25T17:06:31.698Z,2.52
2019-05-25T17:09:02.455Z,3.22
2019-05-25T17:14:01.190Z,2.42
2019-05-25T17:16:30.789Z,2.30
2019-05-25T17:19:00.494Z,4.00
2019-05-25T17:21:29.985Z,15.45
2019-05-25T17:23:59.504Z,5.87
2019-05-25T17:26:29.010Z,11.03
2019-05-25T17:28:59.723Z,90.42
2019-05-25T17:33:58.024Z,8.05
2019-05-25T17:36:27.588Z,14.55
2019-05-25T17:38:58.207Z,9.78
2019-05-25T17:43:57.599Z,3.83
2019-05-25T17:46:27.140Z,3.98
2019-05-25T17:48:57.557Z,6.12
2019-05-25T17:51:29.870Z,10.68
2019-05-25T17:53:59.447Z,5.47
2019-05-25T17:56:34.944Z,4.97
2019-05-25T17:59:04.600Z,7.03
2019-05-25T18:01:34.122Z,6.42
2019-05-25T18:04:07.453Z,6.75
2019-05-25T18:06:39.070Z,6.60
2019-05-25T18:09:09.117Z,5.35
2019-05-25T18:14:35.263Z,4.72
2019-05-25T18:17:04.895Z,10.03
2019-05-25T18:19:34.398Z,7.33
2019-05-25T18:22:05.421Z,6.10
2019-05-25T18:24:34.935Z,6.65
2019-05-25T18:27:04.672Z,5.75
2019-05-25T18:29:35.125Z,6.03
2019-05-25T18:32:04.716Z,6.75
2019-05-25T18:34:34.428Z,5.87
2019-05-25T18:37:03.946Z,6.22
2019-05-25T18:39:33.457Z,6.08
2019-05-25T18:42:03.416Z,6.37
2019-05-25T18:44:32.969Z,9.67
2019-05-25T18:47:02.820Z,9.63
2019-05-25T18:49:32.372Z,6.17
2019-05-25T18:52:02.179Z,9.13
2019-05-25T18:54:32.981Z,7.87
2019-05-25T18:57:06.707Z,7.25
2019-05-25T18:59:35.644Z,6.97
2019-05-25T19:02:05.212Z,9.00
2019-05-25T19:04:45.495Z,8.15
2019-05-25T19:07:07.878Z,7.67
2019-05-25T19:09:39.561Z,9.07
2019-05-25T19:12:09.312Z,8.48
2019-05-25T19:14:38.884Z,10.18
2019-05-25T19:17:08.404Z,11.10
2019-05-25T19:19:39.072Z,9.53
2019-05-25T19:22:09.502Z,12.15
2019-05-25T19:24:39.387Z,17.85
2019-05-25T19:27:08.997Z,14.53
2019-05-25T19:29:38.761Z,14.53
2019-05-25T19:32:09.290Z,13.58
2019-05-25T19:34:38.990Z,15.43
2019-05-25T19:37:09.741Z,17.25
2019-05-25T19:40:19.244Z,15.78
2019-05-25T19:46:16.234Z,16.25
2019-05-25T19:49:14.138Z,16.12
2019-05-25T19:51:44.939Z,14.63
2019-05-25T19:56:45.399Z,16.27
2019-05-25T19:59:17.200Z,17.27
2019-05-25T20:01:46.818Z,14.65
2019-05-25T20:04:22.853Z,17.55
2019-05-25T20:06:54.475Z,19.40
2019-05-25T20:09:25.134Z,14.73
2019-05-25T20:11:54.717Z,17.48
2019-05-25T20:14:24.605Z,17.42
2019-05-25T20:16:57.143Z,18.80
2019-05-25T20:19:32.766Z,24.55
2019-05-25T20:22:18.328Z,20.20
2019-05-25T20:24:53.219Z,21.42
2019-05-25T20:28:00.459Z,20.12
2019-05-25T20:31:03.834Z,21.52
2019-05-25T20:33:37.925Z,22.42
2019-05-25T20:36:43.744Z,21.20
2019-05-25T20:39:30.753Z,23.27
2019-05-25T20:42:00.043Z,24.98
2019-05-25T20:44:29.721Z,25.68
2019-05-25T20:47:00.902Z,24.67
2019-05-25T21:00:24.369Z,25.30
2019-05-25T21:03:09.545Z,25.70
2019-05-25T21:05:50.634Z,22.82
2019-05-25T21:09:06.941Z,25.70
2019-05-25T21:11:56.013Z,23.22
2019-05-25T21:14:28.146Z,19.67
2019-05-25T21:16:57.886Z,20.12
2019-05-25T21:19:27.502Z,22.27
2019-05-25T21:22:01.824Z,19.87
